createdAt,value
2019-04-28T00:01:54.681Z,6.77
2019-04-28T00:04:21.969Z,8.53
2019-04-28T00:06:49.572Z,8.03
2019-04-28T00:09:18.581Z,8.70
2019-04-28T00:11:46.171Z,11.87
2019-04-28T00:14:14.178Z,8.20
2019-04-28T00:16:41.495Z,6.13
2019-04-28T00:19:08.735Z,10.10
2019-04-28T00:21:44.565Z,13.43
2019-04-28T00:24:31.252Z,8.47
2019-04-28T00:27:01.803Z,2.87
2019-04-28T00:29:38.510Z,8.93
2019-04-28T00:31:58.508Z,5.53
2019-04-28T00:34:25.735Z,8.10
2019-04-28T00:36:58.627Z,7.60
2019-04-28T00:39:25.874Z,7.50
2019-04-28T00:41:53.096Z,3.87
2019-04-28T00:44:21.869Z,8.70
2019-04-28T00:46:51.049Z,9.33
2019-04-28T00:49:37.911Z,7.83
2019-04-28T00:52:05.173Z,8.27
2019-04-28T00:54:32.415Z,6.73
2019-04-28T00:57:01.386Z,14.97
2019-04-28T00:59:28.772Z,3.40
2019-04-28T01:02:01.199Z,5.50
2019-04-28T01:04:28.564Z,7.93
2019-04-28T01:06:55.927Z,4.87
2019-04-28T01:09:23.147Z,9.87
2019-04-28T01:11:51.153Z,8.93
2019-04-28T01:14:21.337Z,9.60
2019-04-28T01:16:59.878Z,8.30
2019-04-28T01:19:30.567Z,6.33
2019-04-28T01:22:15.657Z,4.73
2019-04-28T01:24:42.881Z,5.13
2019-04-28T01:27:32.679Z,12.13
2019-04-28T01:30:07.850Z,7.37
2019-04-28T01:32:37.434Z,8.40
2019-04-28T01:35:04.815Z,7.90
2019-04-28T01:37:32.035Z,2.07
2019-04-28T01:39:59.736Z,6.27
2019-04-28T01:42:27.135Z,2.93
2019-04-28T01:44:54.367Z,10.77
2019-04-28T01:47:21.627Z,4.93
2019-04-28T01:49:50.146Z,4.40
2019-04-28T01:52:17.503Z,5.20
2019-04-28T01:54:44.756Z,7.70
2019-04-28T01:57:12.099Z,7.33
2019-04-28T01:59:40.283Z,4.60
2019-04-28T02:02:09.961Z,9.87
2019-04-28T02:04:37.022Z,6.07
2019-04-28T02:07:04.370Z,8.87
2019-04-28T02:09:31.602Z,6.83
2019-04-28T02:12:00.681Z,7.93
2019-04-28T02:14:28.022Z,8.00
2019-04-28T02:16:55.247Z,9.17
2019-04-28T02:19:22.467Z,8.03
2019-04-28T02:22:20.175Z,14.13
2019-04-28T02:24:47.469Z,8.07
2019-04-28T02:27:14.892Z,8.13
2019-04-28T02:29:42.134Z,5.57
2019-04-28T02:32:10.986Z,5.83
2019-04-28T02:34:40.933Z,12.20
2019-04-28T02:37:07.448Z,6.67
2019-04-28T02:39:34.679Z,6.60
2019-04-28T02:42:02.084Z,7.20
2019-04-28T02:44:33.449Z,7.53
2019-04-28T02:47:00.747Z,5.40
2019-04-28T02:49:44.132Z,5.93
2019-04-28T02:52:20.699Z,5.87
2019-04-28T02:54:50.845Z,8.03
2019-04-28T02:57:17.330Z,4.23
2019-04-28T02:59:45.076Z,5.77
2019-04-28T03:02:12.495Z,11.10
2019-04-28T03:04:40.810Z,4.80
2019-04-28T03:07:14.617Z,4.67
2019-04-28T03:09:40.929Z,4.60
2019-04-28T03:12:10.967Z,5.10
2019-04-28T03:14:37.389Z,9.07
2019-04-28T03:17:04.740Z,8.53
2019-04-28T03:19:34.079Z,5.80
2019-04-28T03:22:01.526Z,8.07
2019-04-28T03:24:31.645Z,9.13
2019-04-28T03:27:05.598Z,3.43
2019-04-28T03:29:55.245Z,7.13
2019-04-28T03:32:44.498Z,2.37
2019-04-28T03:35:03.010Z,10.67
2019-04-28T03:37:31.540Z,3.93
2019-04-28T03:40:00.538Z,9.70
2019-04-28T03:42:28.055Z,4.47
2019-04-28T03:44:57.098Z,7.90
2019-04-28T03:47:24.343Z,1.23
2019-04-28T03:49:51.563Z,5.53
2019-04-28T03:52:21.377Z,3.93
2019-04-28T03:54:50.827Z,5.30
2019-04-28T03:57:21.164Z,6.30
2019-04-28T03:59:47.569Z,2.33
2019-04-28T04:02:14.851Z,3.00
2019-04-28T04:04:42.074Z,4.87
2019-04-28T04:07:11.106Z,3.30
2019-04-28T04:10:01.048Z,5.20
2019-04-28T04:12:37.376Z,7.10
2019-04-28T04:15:21.464Z,6.93
2019-04-28T04:18:03.654Z,9.60
2019-04-28T04:20:31.149Z,13.37
2019-04-28T04:23:01.249Z,9.33
2019-04-28T04:25:27.814Z,16.23
2019-04-28T04:27:55.048Z,5.07
2019-04-28T04:30:22.283Z,6.00
2019-04-28T04:32:50.670Z,5.27
2019-04-28T04:35:18.163Z,4.17
2019-04-28T04:37:45.415Z,8.03
2019-04-28T04:40:13.418Z,6.80
2019-04-28T04:42:40.897Z,7.63
2019-04-28T04:45:10.384Z,3.43
2019-04-28T04:47:37.285Z,6.23
2019-04-28T04:50:04.628Z,14.67
2019-04-28T04:52:31.953Z,7.00
2019-04-28T04:55:01.231Z,3.10
2019-04-28T04:57:32.391Z,6.77
2019-04-28T04:59:59.876Z,5.13
2019-04-28T05:02:51.332Z,6.07
2019-04-28T05:05:22.691Z,8.03
2019-04-28T05:07:50.728Z,5.53
2019-04-28T05:10:18.210Z,4.30
2019-04-28T05:12:45.435Z,6.20
2019-04-28T05:15:12.775Z,6.50
2019-04-28T05:17:40.262Z,8.80
2019-04-28T05:20:07.756Z,6.67
2019-04-28T05:22:42.495Z,7.30
2019-04-28T05:25:14.019Z,6.10
2019-04-28T05:27:41.289Z,3.93
2019-04-28T05:30:10.278Z,5.33
2019-04-28T05:32:44.676Z,4.87
2019-04-28T05:35:06.804Z,5.97
2019-04-28T05:37:34.028Z,11.07
2019-04-28T05:40:01.255Z,7.53
2019-04-28T05:42:30.216Z,8.77
2019-04-28T05:44:57.659Z,6.90
2019-04-28T05:47:24.909Z,10.03
2019-04-28T05:50:02.123Z,6.03
2019-04-28T05:52:50.190Z,9.93
2019-04-28T05:55:21.425Z,6.97
2019-04-28T05:58:09.831Z,12.57
2019-04-28T06:01:10.252Z,12.53
2019-04-28T06:03:37.821Z,8.50
2019-04-28T06:06:05.183Z,7.63
2019-04-28T06:08:47.227Z,9.10
2019-04-28T06:11:34.483Z,13.30
2019-04-28T06:14:01.705Z,10.83
2019-04-28T06:16:30.435Z,9.87
2019-04-28T06:18:59.825Z,10.30
2019-04-28T06:21:27.055Z,7.57
2019-04-28T06:23:54.328Z,7.00
2019-04-28T06:26:21.580Z,11.43
2019-04-28T06:28:48.865Z,7.47
2019-04-28T06:31:16.215Z,6.57
2019-04-28T06:33:44.548Z,10.07
2019-04-28T06:36:12.011Z,9.00
2019-04-28T06:38:39.270Z,11.17
2019-04-28T06:41:06.611Z,10.13
2019-04-28T06:43:33.988Z,9.80
2019-04-28T06:46:01.336Z,8.87
2019-04-28T06:48:28.583Z,9.27
2019-04-28T06:50:55.835Z,7.27
2019-04-28T06:53:24.118Z,5.67
2019-04-28T06:55:51.368Z,9.33
2019-04-28T06:58:18.652Z,8.30
2019-04-28T07:00:45.869Z,7.67
2019-04-28T07:03:22.969Z,9.43
2019-04-28T07:05:43.863Z,5.97
2019-04-28T07:08:13.798Z,19.77
2019-04-28T07:10:42.421Z,9.77
2019-04-28T07:13:09.688Z,8.60
2019-04-28T07:15:36.954Z,9.23
2019-04-28T07:18:04.243Z,11.03
2019-04-28T07:20:56.052Z,5.67
2019-04-28T07:23:23.311Z,7.70
2019-04-28T07:25:50.545Z,7.57
2019-04-28T07:28:17.768Z,10.97
2019-04-28T07:30:46.463Z,12.27
2019-04-28T07:33:13.788Z,12.43
2019-04-28T07:35:44.267Z,10.53
2019-04-28T07:38:11.559Z,9.80
2019-04-28T07:40:38.838Z,12.23
2019-04-28T07:43:09.040Z,6.47
2019-04-28T07:45:36.263Z,10.03
2019-04-28T07:48:05.609Z,7.50
2019-04-28T07:50:32.856Z,6.90
2019-04-28T07:53:08.315Z,12.50
2019-04-28T07:55:38.056Z,11.10
2019-04-28T07:58:05.936Z,5.40
2019-04-28T08:00:33.315Z,16.50
2019-04-28T08:03:06.862Z,21.83
2019-04-28T08:05:34.309Z,9.03
2019-04-28T08:08:01.883Z,10.93
2019-04-28T08:10:30.291Z,8.63
2019-04-28T08:12:58.246Z,10.70
2019-04-28T08:15:26.026Z,4.70
2019-04-28T08:17:53.734Z,11.47
2019-04-28T08:20:21.051Z,7.30
2019-04-28T08:22:48.582Z,8.63
2019-04-28T08:25:16.600Z,8.50
2019-04-28T08:27:50.053Z,13.43
2019-04-28T08:30:22.359Z,12.87
2019-04-28T08:33:09.413Z,12.43
2019-04-28T08:35:36.883Z,9.30
2019-04-28T08:38:04.566Z,8.00
2019-04-28T08:40:32.265Z,6.90
2019-04-28T08:42:59.848Z,5.47
2019-04-28T08:45:27.481Z,7.30
2019-04-28T08:47:58.391Z,9.17
2019-04-28T08:50:26.109Z,8.80
2019-04-28T08:52:53.577Z,9.00
2019-04-28T08:55:21.161Z,6.03
2019-04-28T08:57:49.743Z,11.20
2019-04-28T09:00:17.317Z,7.70
2019-04-28T09:02:44.691Z,8.03
2019-04-28T09:05:12.045Z,10.10
2019-04-28T09:07:39.316Z,6.77
2019-04-28T09:10:07.012Z,10.37
2019-04-28T09:12:34.295Z,4.27
2019-04-28T09:15:03.040Z,7.93
2019-04-28T09:17:30.364Z,8.37
2019-04-28T09:19:57.765Z,11.17
2019-04-28T09:22:25.291Z,7.40
2019-04-28T09:24:52.686Z,9.23
2019-04-28T09:27:20.244Z,9.67
2019-04-28T09:29:47.506Z,11.10
2019-04-28T09:32:14.779Z,5.90
2019-04-28T09:34:42.120Z,10.07
2019-04-28T09:37:09.424Z,8.90
2019-04-28T09:39:59.114Z,10.73
2019-04-28T09:42:41.327Z,6.80
2019-04-28T09:45:14.203Z,11.63
2019-04-28T09:47:41.439Z,9.47
2019-04-28T09:50:09.041Z,8.20
2019-04-28T09:52:36.383Z,9.87
2019-04-28T09:55:03.851Z,12.63
2019-04-28T09:57:31.187Z,6.80
2019-04-28T09:59:58.425Z,9.33
2019-04-28T10:02:25.680Z,10.77
2019-04-28T10:04:52.929Z,9.47
2019-04-28T10:07:20.235Z,9.70
2019-04-28T10:09:47.562Z,9.17
2019-04-28T10:12:26.579Z,9.23
2019-04-28T10:14:44.063Z,7.10
2019-04-28T10:17:11.324Z,9.27
2019-04-28T10:19:38.717Z,9.17
2019-04-28T10:22:06.049Z,8.37
2019-04-28T10:24:35.871Z,7.27
2019-04-28T10:27:04.139Z,5.80
2019-04-28T10:29:32.973Z,5.03
2019-04-28T10:32:00.531Z,6.00
2019-04-28T10:34:27.770Z,6.70
2019-04-28T10:36:55.227Z,9.47
2019-04-28T10:39:29.967Z,5.80
2019-04-28T10:41:57.295Z,7.57
2019-04-28T10:44:25.667Z,7.23
2019-04-28T10:46:52.901Z,7.53
2019-04-28T10:49:20.135Z,6.77
2019-04-28T10:51:58.834Z,9.93
2019-04-28T10:54:16.932Z,8.73
2019-04-28T10:56:44.284Z,6.33
2019-04-28T10:59:11.686Z,5.57
2019-04-28T11:01:39.836Z,3.30
2019-04-28T11:04:10.287Z,7.23
2019-04-28T11:06:37.523Z,9.53
2019-04-28T11:09:30.905Z,8.13
2019-04-28T11:11:58.293Z,4.20
2019-04-28T11:14:25.571Z,3.87
2019-04-28T11:16:52.836Z,5.03
2019-04-28T11:19:20.071Z,5.03
2019-04-28T11:21:47.465Z,8.03
2019-04-28T11:24:14.715Z,3.22
2019-04-28T11:26:42.035Z,4.55
2019-04-28T11:29:09.426Z,7.15
2019-04-28T11:31:36.831Z,3.30
2019-04-28T11:34:12.827Z,2.87
2019-04-28T11:36:40.055Z,6.73
2019-04-28T11:39:10.002Z,3.85
2019-04-28T11:41:37.319Z,3.77
2019-04-28T11:44:04.668Z,3.67
2019-04-28T11:46:31.932Z,5.30
2019-04-28T11:48:59.800Z,2.47
2019-04-28T11:51:27.124Z,4.17
2019-04-28T11:53:54.399Z,4.20
2019-04-28T11:56:21.623Z,4.72
2019-04-28T11:58:48.844Z,5.15
2019-04-28T12:01:16.683Z,2.25
2019-04-28T12:03:43.923Z,8.73
2019-04-28T12:06:11.183Z,3.72
2019-04-28T12:08:38.424Z,3.83
2019-04-28T12:11:40.515Z,5.03
2019-04-28T12:14:20.803Z,11.07
2019-04-28T12:17:07.613Z,7.15
2019-04-28T12:19:44.194Z,4.47
2019-04-28T12:22:11.462Z,7.33
2019-04-28T12:24:38.675Z,5.40
2019-04-28T12:27:05.917Z,3.27
2019-04-28T12:29:33.243Z,3.73
2019-04-28T12:32:00.552Z,5.37
2019-04-28T12:34:27.826Z,6.70
2019-04-28T12:36:55.142Z,6.10
2019-04-28T12:39:22.387Z,4.60
2019-04-28T12:41:49.627Z,2.30
2019-04-28T12:44:16.922Z,4.27
2019-04-28T12:46:44.189Z,5.97
2019-04-28T12:49:18.391Z,3.08
2019-04-28T12:51:45.783Z,3.13
2019-04-28T12:54:15.263Z,5.67
2019-04-28T12:56:42.487Z,3.92
2019-04-28T12:59:16.821Z,2.98
2019-04-28T13:01:51.442Z,3.45
2019-04-28T13:04:23.643Z,3.67
2019-04-28T13:07:04.416Z,2.58
2019-04-28T13:09:31.663Z,2.65
2019-04-28T13:11:59.012Z,1.85
2019-04-28T13:14:26.664Z,1.98
2019-04-28T13:16:53.920Z,2.85
2019-04-28T13:19:21.146Z,1.95
2019-04-28T13:21:48.403Z,4.42
2019-04-28T13:24:15.651Z,1.95
2019-04-28T13:26:42.929Z,1.00
2019-04-28T13:29:10.164Z,2.12
2019-04-28T13:31:37.443Z,1.05
2019-04-28T13:34:06.518Z,3.40
2019-04-28T13:36:33.875Z,1.35
2019-04-28T13:39:03.017Z,1.47
2019-04-28T13:41:30.272Z,3.98
2019-04-28T13:43:59.068Z,3.10
2019-04-28T13:46:28.279Z,1.70
2019-04-28T13:48:56.780Z,1.37
2019-04-28T13:51:24.021Z,1.50
2019-04-28T13:53:52.215Z,1.02
2019-04-28T13:56:19.531Z,1.87
2019-04-28T13:59:10.395Z,1.37
2019-04-28T14:01:56.142Z,3.30
2019-04-28T14:04:35.917Z,1.67
2019-04-28T14:07:04.974Z,1.55
2019-04-28T14:09:32.292Z,1.57
2019-04-28T14:11:59.544Z,1.32
2019-04-28T14:14:26.807Z,1.00
2019-04-28T14:16:54.087Z,3.30
2019-04-28T14:19:21.395Z,0.75
2019-04-28T14:21:48.632Z,1.20
2019-04-28T14:24:15.875Z,0.98
2019-04-28T14:26:44.244Z,0.75
2019-04-28T14:29:11.481Z,2.05
2019-04-28T14:31:38.966Z,1.10
2019-04-28T14:34:06.364Z,2.25
2019-04-28T14:36:41.956Z,1.47
2019-04-28T14:39:05.527Z,0.82
2019-04-28T14:41:32.827Z,1.77
2019-04-28T14:44:00.180Z,0.88
2019-04-28T14:46:27.427Z,1.95
2019-04-28T14:48:54.765Z,0.88
2019-04-28T14:51:22.024Z,1.82
2019-04-28T14:53:49.559Z,1.47
2019-04-28T14:56:17.222Z,0.72
2019-04-28T14:58:44.515Z,1.02
2019-04-28T15:01:30.410Z,1.37
2019-04-28T15:03:59.536Z,0.40
2019-04-28T15:06:32.091Z,1.47
2019-04-28T15:09:18.225Z,1.03
2019-04-28T15:11:49.523Z,1.70
2019-04-28T15:14:17.078Z,0.93
2019-04-28T15:16:44.624Z,1.60
2019-04-28T15:19:14.059Z,1.23
2019-04-28T15:21:41.171Z,0.87
2019-04-28T15:24:08.431Z,1.50
2019-04-28T15:26:35.714Z,1.37
2019-04-28T15:29:03.039Z,1.63
2019-04-28T15:31:30.284Z,0.67
2019-04-28T15:33:57.637Z,1.27
2019-04-28T15:36:25.077Z,3.70
2019-04-28T15:38:52.323Z,1.90
2019-04-28T15:41:21.720Z,0.53
2019-04-28T15:43:48.771Z,2.53
2019-04-28T15:46:16.133Z,0.40
2019-04-28T15:48:43.538Z,1.87
2019-04-28T15:51:10.912Z,0.57
2019-04-28T15:53:38.151Z,0.47
2019-04-28T15:56:24.933Z,0.83
2019-04-28T15:58:52.158Z,1.37
2019-04-28T16:01:19.483Z,1.13
2019-04-28T16:03:47.226Z,1.80
2019-04-28T16:06:14.583Z,0.20
2019-04-28T16:08:41.836Z,1.00
2019-04-28T16:11:09.102Z,0.47
2019-04-28T16:13:36.340Z,0.57
2019-04-28T16:16:03.696Z,1.40
2019-04-28T16:18:30.935Z,0.47
2019-04-28T16:20:58.178Z,2.00
2019-04-28T16:23:25.438Z,3.93
2019-04-28T16:25:52.686Z,1.93
2019-04-28T16:28:19.915Z,1.57
2019-04-28T16:30:47.437Z,1.80
2019-04-28T16:33:14.808Z,0.70
2019-04-28T16:35:42.149Z,0.77
2019-04-28T16:38:09.399Z,1.30
2019-04-28T16:40:42.056Z,4.10
2019-04-28T16:43:20.461Z,0.30
2019-04-28T16:45:47.692Z,0.83
2019-04-28T16:48:14.922Z,0.43
2019-04-28T16:50:42.179Z,1.17
2019-04-28T16:53:09.411Z,0.70
2019-04-28T16:55:54.829Z,1.33
2019-04-28T16:58:41.555Z,0.60
2019-04-28T17:01:40.150Z,1.63
2019-04-28T17:04:07.467Z,0.40
2019-04-28T17:06:34.707Z,2.20
2019-04-28T17:09:01.962Z,0.50
2019-04-28T17:11:29.198Z,0.63
2019-04-28T17:13:56.463Z,4.27
2019-04-28T17:16:23.705Z,1.07
2019-04-28T17:18:51.024Z,0.50
2019-04-28T17:21:18.286Z,1.30
2019-04-28T17:23:45.510Z,1.90
2019-04-28T17:26:12.992Z,1.60
2019-04-28T17:28:40.284Z,1.10
2019-04-28T17:31:09.358Z,0.70
2019-04-28T17:33:36.600Z,1.30
2019-04-28T17:36:03.847Z,1.53
2019-04-28T17:38:31.091Z,0.87
2019-04-28T17:40:58.316Z,0.40
2019-04-28T17:43:25.630Z,1.03
2019-04-28T17:45:52.871Z,1.17
2019-04-28T17:48:25.368Z,0.73
2019-04-28T17:50:52.644Z,1.13
2019-04-28T17:53:19.969Z,0.77
2019-04-28T17:55:47.220Z,0.73
2019-04-28T17:58:14.464Z,3.73
2019-04-28T18:01:00.167Z,1.00
2019-04-28T18:03:46.932Z,1.73
2019-04-28T18:06:18.770Z,3.47
2019-04-28T18:08:46.020Z,4.57
2019-04-28T18:11:13.575Z,2.07
2019-04-28T18:13:41.010Z,1.73
2019-04-28T18:16:33.446Z,0.53
2019-04-28T18:19:04.380Z,2.43
2019-04-28T18:21:31.775Z,0.93
2019-04-28T18:23:59.030Z,0.30
2019-04-28T18:26:26.779Z,0.77
2019-04-28T18:28:54.024Z,0.70
2019-04-28T18:31:41.057Z,1.10
2019-04-28T18:34:30.580Z,0.87
2019-04-28T18:37:17.579Z,0.70
2019-04-28T18:40:02.778Z,1.20
2019-04-28T18:42:43.523Z,0.63
2019-04-28T18:45:10.891Z,0.40
2019-04-28T18:47:38.118Z,1.60
2019-04-28T18:50:05.784Z,0.30
2019-04-28T18:52:33.116Z,0.33
2019-04-28T18:55:00.348Z,0.43
2019-04-28T18:57:27.793Z,0.43
2019-04-28T18:59:55.269Z,0.40
2019-04-28T19:02:31.051Z,1.07
2019-04-28T19:04:58.320Z,1.30
2019-04-28T19:07:45.288Z,0.70
2019-04-28T19:10:20.340Z,1.60
2019-04-28T19:12:59.424Z,0.60
2019-04-28T19:15:46.203Z,0.37
2019-04-28T19:18:19.650Z,0.67
2019-04-28T19:20:46.931Z,0.63
2019-04-28T19:23:14.251Z,0.57
2019-04-28T19:25:41.618Z,1.80
2019-04-28T19:28:08.884Z,0.40
2019-04-28T19:30:36.145Z,0.40
2019-04-28T19:33:03.375Z,0.40
2019-04-28T19:35:30.655Z,0.27
2019-04-28T19:37:57.903Z,0.40
2019-04-28T19:40:25.174Z,0.30
2019-04-28T19:42:52.554Z,0.77
2019-04-28T19:45:20.505Z,0.47
2019-04-28T19:47:48.017Z,1.20
2019-04-28T19:50:15.251Z,0.30
2019-04-28T19:52:42.877Z,0.27
2019-04-28T19:55:16.731Z,0.53
2019-04-28T19:58:06.615Z,1.47
2019-04-28T20:00:53.421Z,0.37
2019-04-28T20:03:20.774Z,0.50
2019-04-28T20:05:48.079Z,0.73
2019-04-28T20:08:15.343Z,0.40
2019-04-28T20:10:42.694Z,2.10
2019-04-28T20:13:09.968Z,2.23
2019-04-28T20:15:37.192Z,1.07
2019-04-28T20:18:04.420Z,1.00
2019-04-28T20:20:31.663Z,2.37
2019-04-28T20:22:58.895Z,1.20
2019-04-28T20:25:26.229Z,2.77
2019-04-28T20:27:53.547Z,2.17
2019-04-28T20:30:20.799Z,2.03
2019-04-28T20:32:48.078Z,1.73
2019-04-28T20:35:19.443Z,2.17
2019-04-28T20:37:52.631Z,2.10
2019-04-28T20:40:26.137Z,1.50
2019-04-28T20:43:07.725Z,1.77
2019-04-28T20:45:34.948Z,1.30
2019-04-28T20:48:02.195Z,2.13
2019-04-28T20:50:29.439Z,2.07
2019-04-28T20:52:56.656Z,12.57
2019-04-28T20:55:23.914Z,12.53
2019-04-28T20:57:51.811Z,19.83
2019-04-28T21:00:19.097Z,15.70
2019-04-28T21:02:46.330Z,23.60
2019-04-28T21:05:13.563Z,26.30
2019-04-28T21:07:40.837Z,15.73
2019-04-28T21:10:08.171Z,4.80
2019-04-28T21:12:35.431Z,9.43
2019-04-28T21:15:02.721Z,5.57
2019-04-28T21:17:30.126Z,3.77
2019-04-28T21:19:57.452Z,5.60
2019-04-28T21:22:24.682Z,2.63
2019-04-28T21:24:51.926Z,2.33
2019-04-28T21:27:19.093Z,2.90
2019-04-28T21:29:46.314Z,2.40
2019-04-28T21:32:13.637Z,2.50
2019-04-28T21:34:40.891Z,4.93
2019-04-28T21:37:08.235Z,5.00
2019-04-28T21:39:35.575Z,1.40
2019-04-28T21:42:04.609Z,2.37
2019-04-28T21:44:39.800Z,3.53
2019-04-28T21:47:16.872Z,1.53
2019-04-28T21:49:44.133Z,2.07
2019-04-28T21:52:11.572Z,3.53
2019-04-28T21:54:38.827Z,2.20
2019-04-28T21:57:06.083Z,0.97
2019-04-28T21:59:33.406Z,2.20
2019-04-28T22:02:00.795Z,2.03
2019-04-28T22:04:28.043Z,3.33
2019-04-28T22:06:55.398Z,1.90
2019-04-28T22:09:22.653Z,2.50
2019-04-28T22:11:49.887Z,2.93
2019-04-28T22:14:17.113Z,2.40
2019-04-28T22:16:44.339Z,4.03
2019-04-28T22:19:11.620Z,1.70
2019-04-28T22:21:38.952Z,1.50
2019-04-28T22:24:27.705Z,2.47
2019-04-28T22:26:54.936Z,6.13
2019-04-28T22:29:22.243Z,7.50
2019-04-28T22:31:49.535Z,1.50
2019-04-28T22:34:16.783Z,2.63
2019-04-28T22:36:45.139Z,4.30
2019-04-28T22:39:12.891Z,4.07
2019-04-28T22:41:40.110Z,4.40
2019-04-28T22:44:07.353Z,3.03
2019-04-28T22:46:34.713Z,4.13
2019-04-28T22:49:03.931Z,3.27
2019-04-28T22:51:31.276Z,7.40
2019-04-28T22:54:00.386Z,3.67
2019-04-28T22:56:37.384Z,3.30
2019-04-28T22:59:12.511Z,2.57
2019-04-28T23:01:42.660Z,1.63
2019-04-28T23:04:23.600Z,6.03
2019-04-28T23:06:50.846Z,1.60
2019-04-28T23:09:20.255Z,1.80
2019-04-28T23:11:47.601Z,3.20
2019-04-28T23:14:14.853Z,3.07
2019-04-28T23:16:42.099Z,2.40
2019-04-28T23:19:11.723Z,2.10
2019-04-28T23:22:00.687Z,4.10
2019-04-28T23:24:27.935Z,2.30
2019-04-28T23:26:55.184Z,3.40
2019-04-28T23:29:22.434Z,2.30
2019-04-28T23:31:49.671Z,2.07
2019-04-28T23:34:16.915Z,3.13
2019-04-28T23:36:44.180Z,5.17
2019-04-28T23:39:11.404Z,3.40
2019-04-28T23:41:58.175Z,5.20
2019-04-28T23:44:25.423Z,2.47
2019-04-28T23:46:58.643Z,7.50
2019-04-28T23:49:27.024Z,2.63
2019-04-28T23:52:31.692Z,3.07
2019-04-28T23:55:00.960Z,6.80
2019-04-28T23:57:28.210Z,3.60
2019-04-28T23:59:55.470Z,3.30
